createdAt,value
2023-04-28T00:00:42.684Z,75.52
2023-04-28T00:03:19.920Z,75.68
2023-04-28T00:05:49.688Z,75.49
2023-04-28T00:08:18.130Z,75.72
2023-04-28T00:10:46.511Z,75.79
2023-04-28T00:13:14.840Z,75.73
2023-04-28T00:15:43.222Z,75.92
2023-04-28T00:18:11.606Z,75.92
2023-04-28T00:20:39.969Z,76.08
2023-04-28T00:23:08.335Z,75.76
2023-04-28T00:25:36.702Z,75.91
2023-04-28T00:28:05.109Z,75.91
2023-04-28T00:30:33.448Z,75.85
2023-04-28T00:33:01.843Z,75.91
2023-04-28T00:35:30.410Z,75.91
2023-04-28T00:37:58.835Z,75.87
2023-04-28T00:40:39.804Z,75.84
2023-04-28T00:43:08.203Z,75.97
2023-04-28T00:45:36.698Z,76.03
2023-04-28T00:48:05.607Z,76.21
2023-04-28T00:50:33.955Z,76.18
2023-04-28T00:53:02.902Z,76.13
2023-04-28T00:55:35.146Z,76.26
2023-04-28T00:58:04.837Z,76.22
2023-04-28T01:00:34.233Z,76.39
2023-04-28T01:03:03.119Z,76.62
2023-04-28T01:05:32.046Z,76.39
2023-04-28T01:08:00.682Z,76.46
2023-04-28T01:10:29.005Z,76.65
2023-04-28T01:12:57.436Z,76.61
2023-04-28T01:15:26.886Z,76.68
2023-04-28T01:17:55.651Z,76.73
2023-04-28T01:20:24.265Z,76.88
2023-04-28T01:22:52.644Z,77.02
2023-04-28T01:25:21.194Z,77.03
2023-04-28T01:27:49.516Z,77.04
2023-04-28T01:30:17.854Z,76.79
2023-04-28T01:32:46.237Z,77.01
2023-04-28T01:35:14.674Z,77.13
2023-04-28T01:37:43.042Z,77.14
2023-04-28T01:40:12.228Z,77.16
2023-04-28T01:42:40.666Z,77.20
2023-04-28T01:45:10.097Z,77.32
2023-04-28T01:47:38.967Z,77.28
2023-04-28T01:50:07.888Z,77.38
2023-04-28T01:52:36.321Z,77.30
2023-04-28T01:55:05.682Z,77.41
2023-04-28T01:57:35.794Z,77.27
2023-04-28T02:00:05.152Z,77.21
2023-04-28T02:02:33.724Z,77.24
2023-04-28T02:05:02.332Z,77.18
2023-04-28T02:07:30.676Z,77.11
2023-04-28T02:09:58.964Z,77.32
2023-04-28T02:12:27.347Z,77.32
2023-04-28T02:14:55.676Z,77.40
2023-04-28T02:17:24.101Z,77.51
2023-04-28T02:19:58.590Z,77.58
2023-04-28T02:22:26.919Z,77.52
2023-04-28T02:24:55.386Z,77.67
2023-04-28T02:27:23.719Z,77.83
2023-04-28T02:29:52.773Z,77.86
2023-04-28T02:32:21.183Z,77.78
2023-04-28T02:34:54.751Z,77.84
2023-04-28T02:37:23.465Z,77.85
2023-04-28T02:39:51.744Z,77.90
2023-04-28T02:42:20.070Z,77.93
2023-04-28T02:44:48.408Z,77.77
2023-04-28T02:47:17.042Z,77.96
2023-04-28T02:49:45.871Z,78.00
2023-04-28T02:52:14.374Z,78.14
2023-04-28T02:54:42.885Z,78.13
2023-04-28T02:57:11.241Z,78.31
2023-04-28T02:59:39.788Z,78.27
2023-04-28T03:02:09.377Z,78.52
2023-04-28T03:04:37.754Z,78.55
2023-04-28T03:07:06.093Z,78.45
2023-04-28T03:09:34.937Z,78.71
2023-04-28T03:12:03.544Z,78.50
2023-04-28T03:14:31.923Z,78.56
2023-04-28T03:17:00.385Z,78.49
2023-04-28T03:19:29.038Z,78.45
2023-04-28T03:21:57.342Z,78.51
2023-04-28T03:24:25.808Z,78.54
2023-04-28T03:26:54.132Z,78.68
2023-04-28T03:29:24.449Z,78.87
2023-04-28T03:31:53.088Z,78.73
2023-04-28T03:34:21.391Z,78.68
2023-04-28T03:36:49.718Z,78.81
2023-04-28T03:39:18.479Z,79.04
2023-04-28T03:41:46.846Z,79.02
2023-04-28T03:44:15.332Z,79.31
2023-04-28T03:46:43.823Z,79.34
2023-04-28T03:49:12.161Z,79.47
2023-04-28T03:51:41.049Z,79.68
2023-04-28T03:54:09.378Z,79.85
2023-04-28T03:56:37.876Z,79.94
2023-04-28T03:59:06.232Z,80.25
2023-04-28T04:01:34.564Z,80.33
2023-04-28T04:04:03.406Z,80.39
2023-04-28T04:06:32.496Z,80.53
2023-04-28T04:09:00.852Z,80.50
2023-04-28T04:11:29.146Z,80.66
2023-04-28T04:13:57.487Z,80.76
2023-04-28T04:16:26.160Z,80.82
2023-04-28T04:18:54.538Z,80.86
2023-04-28T04:21:22.884Z,81.11
2023-04-28T04:23:51.362Z,81.24
2023-04-28T04:26:19.706Z,81.19
2023-04-28T04:28:48.066Z,81.16
2023-04-28T04:31:16.602Z,81.08
2023-04-28T04:33:45.538Z,81.19
2023-04-28T04:36:13.947Z,81.07
2023-04-28T04:38:42.357Z,81.05
2023-04-28T04:41:10.682Z,81.06
2023-04-28T04:43:39.188Z,81.14
2023-04-28T04:46:07.810Z,81.17
2023-04-28T04:48:36.295Z,81.17
2023-04-28T04:51:04.805Z,81.15
2023-04-28T04:53:33.202Z,81.14
2023-04-28T04:56:01.688Z,80.97
2023-04-28T04:58:30.114Z,80.81
2023-04-28T05:00:58.687Z,80.45
2023-04-28T05:03:27.291Z,80.42
2023-04-28T05:05:56.618Z,80.47
2023-04-28T05:08:28.037Z,80.49
2023-04-28T05:10:58.710Z,80.54
2023-04-28T05:13:27.809Z,80.13
2023-04-28T05:15:57.535Z,80.00
2023-04-28T05:18:59.817Z,79.79
2023-04-28T05:21:33.203Z,79.77
2023-04-28T05:24:07.521Z,79.77
2023-04-28T05:26:42.251Z,79.59
2023-04-28T05:29:23.348Z,79.59
2023-04-28T05:32:18.166Z,79.74
2023-04-28T05:35:44.432Z,79.53
2023-04-28T05:38:27.005Z,79.24
2023-04-28T05:41:03.561Z,79.30
2023-04-28T05:43:36.361Z,79.14
2023-04-28T05:46:28.455Z,79.03
2023-04-28T05:49:41.583Z,78.87
2023-04-28T05:52:40.092Z,78.64
2023-04-28T05:55:43.551Z,78.58
2023-04-28T05:58:12.102Z,77.91
2023-04-28T06:00:40.837Z,77.75
2023-04-28T06:03:15.130Z,77.55
2023-04-28T06:05:44.042Z,77.49
2023-04-28T06:08:37.270Z,77.43
2023-04-28T06:11:06.728Z,77.11
2023-04-28T06:13:35.099Z,77.10
2023-04-28T06:16:04.118Z,76.96
2023-04-28T06:18:32.982Z,76.80
2023-04-28T06:21:01.693Z,76.65
2023-04-28T06:23:30.081Z,76.50
2023-04-28T06:25:58.487Z,76.48
2023-04-28T06:28:26.892Z,76.19
2023-04-28T06:30:55.695Z,75.80
2023-04-28T06:33:24.071Z,75.57
2023-04-28T06:35:53.551Z,75.86
2023-04-28T06:38:21.918Z,75.81
2023-04-28T06:40:50.484Z,75.85
2023-04-28T06:43:18.798Z,75.56
2023-04-28T06:45:48.426Z,75.21
2023-04-28T06:48:17.312Z,75.10
2023-04-28T06:50:46.398Z,75.11
2023-04-28T06:53:14.769Z,75.08
2023-04-28T06:55:43.486Z,75.05
2023-04-28T06:58:11.893Z,74.96
2023-04-28T07:00:40.308Z,74.66
2023-04-28T07:03:09.336Z,74.67
2023-04-28T07:05:38.856Z,74.41
2023-04-28T07:08:07.232Z,74.17
2023-04-28T07:10:35.682Z,73.70
2023-04-28T07:13:04.124Z,73.66
2023-04-28T07:15:32.640Z,73.63
2023-04-28T07:18:01.773Z,73.55
2023-04-28T07:20:30.144Z,73.46
2023-04-28T07:22:58.701Z,73.25
2023-04-28T07:25:27.130Z,73.36
2023-04-28T07:27:55.613Z,73.12
2023-04-28T07:30:29.409Z,72.96
2023-04-28T07:32:59.536Z,72.77
2023-04-28T07:35:28.540Z,72.47
2023-04-28T07:37:57.962Z,72.14
2023-04-28T07:40:26.474Z,72.22
2023-04-28T07:42:54.815Z,71.90
2023-04-28T07:45:26.344Z,71.62
2023-04-28T07:47:54.738Z,71.49
2023-04-28T07:50:38.376Z,71.29
2023-04-28T07:53:06.770Z,71.29
2023-04-28T07:55:38.295Z,70.84
2023-04-28T07:58:09.262Z,70.65
2023-04-28T08:00:40.890Z,70.57
2023-04-28T08:03:09.907Z,70.25
2023-04-28T08:05:46.554Z,69.85
2023-04-28T08:08:15.109Z,69.40
2023-04-28T08:10:44.005Z,69.37
2023-04-28T08:13:16.674Z,68.82
2023-04-28T08:15:49.601Z,68.54
2023-04-28T08:18:18.172Z,68.16
2023-04-28T08:20:46.669Z,67.88
2023-04-28T08:23:15.038Z,68.02
2023-04-28T08:25:43.522Z,67.97
2023-04-28T08:28:11.911Z,67.74
2023-04-28T08:30:40.497Z,67.49
2023-04-28T08:33:08.887Z,67.33
2023-04-28T08:35:37.374Z,67.48
2023-04-28T08:38:08.343Z,66.96
2023-04-28T08:40:42.913Z,66.66
2023-04-28T08:43:14.209Z,67.23
2023-04-28T08:45:52.249Z,66.79
2023-04-28T08:48:23.046Z,66.06
2023-04-28T08:50:54.570Z,65.45
2023-04-28T08:53:27.579Z,65.32
2023-04-28T08:55:58.182Z,65.17
2023-04-28T08:58:28.451Z,65.24
2023-04-28T09:00:56.961Z,65.23
2023-04-28T09:03:27.012Z,64.82
2023-04-28T09:05:55.416Z,64.26
2023-04-28T09:08:23.792Z,64.48
2023-04-28T09:11:15.692Z,64.20
2023-04-28T09:13:44.396Z,63.80
2023-04-28T09:16:12.884Z,63.96
2023-04-28T09:18:56.992Z,63.60
2023-04-28T09:21:26.930Z,63.61
2023-04-28T09:23:55.358Z,62.74
2023-04-28T09:26:25.163Z,62.46
2023-04-28T09:29:12.929Z,62.62
2023-04-28T09:31:42.866Z,62.36
2023-04-28T09:34:14.195Z,61.98
2023-04-28T09:36:43.205Z,61.73
2023-04-28T09:39:12.344Z,61.50
2023-04-28T09:41:44.210Z,61.48
2023-04-28T09:44:32.925Z,61.33
2023-04-28T09:47:19.849Z,61.24
2023-04-28T09:50:00.064Z,61.31
2023-04-28T09:52:28.570Z,60.93
2023-04-28T09:54:58.400Z,60.76
2023-04-28T09:57:33.796Z,60.46
2023-04-28T10:00:06.857Z,59.98
2023-04-28T10:10:42.565Z,59.39
2023-04-28T10:13:12.747Z,59.04
2023-04-28T10:15:42.608Z,58.63
2023-04-28T10:18:14.960Z,58.84
2023-04-28T10:20:48.642Z,58.16
2023-04-28T10:23:48.466Z,57.28
2023-04-28T10:26:21.990Z,57.40
2023-04-28T10:28:52.564Z,57.21
2023-04-28T10:31:26.370Z,56.83
2023-04-28T10:34:17.099Z,56.50
2023-04-28T10:36:51.093Z,56.13
2023-04-28T10:39:25.147Z,56.42
2023-04-28T10:41:59.522Z,56.18
2023-04-28T10:44:28.998Z,55.87
2023-04-28T10:47:04.161Z,55.39
2023-04-28T10:50:06.241Z,54.59
2023-04-28T10:52:59.045Z,54.64
2023-04-28T10:55:37.653Z,54.50
2023-04-28T10:58:42.851Z,53.91
2023-04-28T11:01:27.139Z,53.40
2023-04-28T11:04:17.079Z,53.23
2023-04-28T11:06:47.878Z,53.51
2023-04-28T11:09:17.537Z,53.45
2023-04-28T11:12:01.477Z,53.49
2023-04-28T11:14:32.970Z,53.34
2023-04-28T11:17:11.410Z,52.43
2023-04-28T11:19:45.985Z,51.91
2023-04-28T11:22:18.767Z,51.68
2023-04-28T11:25:02.004Z,51.07
2023-04-28T11:27:33.499Z,50.79
2023-04-28T11:30:02.271Z,50.47
2023-04-28T11:32:35.721Z,50.37
2023-04-28T11:35:05.405Z,50.24
2023-04-28T11:37:33.768Z,50.05
2023-04-28T11:40:12.241Z,49.84
2023-04-28T11:42:49.914Z,49.63
2023-04-28T11:45:18.515Z,49.15
2023-04-28T11:47:48.218Z,49.23
2023-04-28T11:50:17.713Z,49.26
2023-04-28T11:52:56.503Z,49.40
2023-04-28T11:55:24.904Z,48.89
2023-04-28T11:58:25.307Z,48.32
2023-04-28T12:01:11.691Z,48.37
2023-04-28T12:03:47.763Z,48.24
2023-04-28T12:06:32.709Z,47.53
2023-04-28T12:09:25.481Z,47.59
2023-04-28T12:12:03.334Z,47.13
2023-04-28T12:15:35.499Z,46.93
2023-04-28T12:18:19.489Z,46.71
2023-04-28T12:20:49.003Z,46.90
2023-04-28T12:23:32.322Z,46.79
2023-04-28T12:26:02.470Z,46.69
2023-04-28T12:28:41.963Z,46.42
2023-04-28T12:31:12.074Z,46.10
2023-04-28T12:33:41.299Z,46.15
2023-04-28T12:36:09.633Z,46.13
2023-04-28T12:38:48.021Z,45.72
2023-04-28T12:41:16.601Z,45.10
2023-04-28T12:43:44.951Z,45.26
2023-04-28T12:46:15.677Z,45.25
2023-04-28T12:48:44.121Z,45.52
2023-04-28T12:51:12.425Z,45.14
2023-04-28T12:53:40.849Z,45.20
2023-04-28T12:56:09.151Z,45.11
2023-04-28T12:58:38.016Z,44.72
2023-04-28T13:01:06.892Z,44.69
2023-04-28T13:03:36.420Z,44.38
2023-04-28T13:06:06.020Z,44.43
2023-04-28T13:08:34.369Z,43.94
2023-04-28T13:11:12.815Z,43.89
2023-04-28T13:13:51.304Z,43.57
2023-04-28T13:16:21.251Z,43.02
2023-04-28T13:18:50.719Z,42.97
2023-04-28T13:21:19.248Z,43.18
2023-04-28T13:23:47.620Z,43.34
2023-04-28T13:26:15.928Z,43.13
2023-04-28T13:28:46.865Z,43.00
2023-04-28T13:31:17.314Z,42.89
2023-04-28T13:33:47.132Z,42.19
2023-04-28T13:36:16.984Z,41.62
2023-04-28T13:38:48.866Z,41.80
2023-04-28T13:41:17.679Z,42.01
2023-04-28T13:43:45.985Z,42.13
2023-04-28T13:46:16.612Z,42.28
2023-04-28T13:51:15.115Z,42.14
2023-04-28T13:53:43.459Z,42.26
2023-04-28T13:56:12.365Z,42.33
2023-04-28T13:58:40.786Z,41.91
2023-04-28T14:01:09.181Z,41.43
2023-04-28T14:03:37.766Z,41.40
2023-04-28T14:06:08.198Z,41.40
2023-04-28T14:08:36.784Z,41.09
2023-04-28T14:11:05.140Z,41.34
2023-04-28T14:13:33.580Z,41.00
2023-04-28T14:16:02.307Z,41.16
2023-04-28T14:18:30.960Z,41.08
2023-04-28T14:21:00.230Z,40.95
2023-04-28T14:23:28.849Z,41.23
2023-04-28T14:25:58.143Z,41.41
2023-04-28T14:28:26.565Z,41.58
2023-04-28T14:30:55.115Z,41.52
2023-04-28T14:33:24.324Z,41.56
2023-04-28T14:35:52.703Z,41.72
2023-04-28T14:38:21.051Z,41.77
2023-04-28T14:40:49.391Z,41.64
2023-04-28T14:43:17.772Z,41.71
2023-04-28T14:45:49.161Z,42.19
2023-04-28T14:48:17.612Z,42.42
2023-04-28T14:50:46.298Z,42.15
2023-04-28T14:53:14.885Z,41.99
2023-04-28T14:55:44.515Z,42.01
2023-04-28T14:58:13.536Z,42.19
2023-04-28T15:00:42.216Z,42.14
2023-04-28T15:03:10.702Z,42.28
2023-04-28T15:05:39.529Z,41.80
2023-04-28T15:08:33.383Z,41.83
2023-04-28T15:11:01.796Z,42.01
2023-04-28T15:13:30.336Z,41.77
2023-04-28T15:15:58.753Z,41.27
2023-04-28T15:18:35.963Z,40.66
2023-04-28T15:21:05.158Z,40.36
2023-04-28T15:23:33.695Z,40.60
2023-04-28T15:26:02.568Z,40.80
2023-04-28T15:28:31.248Z,40.56
2023-04-28T15:30:59.630Z,40.30
2023-04-28T15:33:28.818Z,40.40
2023-04-28T15:35:57.223Z,40.29
2023-04-28T15:38:26.400Z,40.05
2023-04-28T15:40:57.160Z,40.10
2023-04-28T15:43:27.246Z,39.93
2023-04-28T15:45:57.965Z,39.87
2023-04-28T15:48:27.327Z,39.93
2023-04-28T15:50:56.239Z,39.72
2023-04-28T15:53:28.363Z,39.82
2023-04-28T15:55:57.743Z,40.00
2023-04-28T15:58:26.110Z,40.37
2023-04-28T16:00:54.626Z,40.56
2023-04-28T16:03:23.530Z,40.64
2023-04-28T16:05:58.052Z,40.25
2023-04-28T16:08:33.421Z,39.69
2023-04-28T16:11:03.790Z,39.18
2023-04-28T16:13:37.876Z,38.82
2023-04-28T16:16:12.135Z,38.77
2023-04-28T16:18:48.198Z,38.49
2023-04-28T16:21:17.824Z,38.38
2023-04-28T16:23:46.751Z,38.53
2023-04-28T16:26:15.209Z,38.64
2023-04-28T16:28:43.618Z,39.20
2023-04-28T16:31:12.332Z,39.41
2023-04-28T16:33:40.787Z,39.65
2023-04-28T16:36:09.118Z,39.93
2023-04-28T16:38:37.522Z,40.32
2023-04-28T16:47:43.481Z,41.64
2023-04-28T16:50:17.358Z,42.17
2023-04-28T16:52:45.929Z,42.61
2023-04-28T16:55:15.295Z,43.20
2023-04-28T16:57:43.646Z,43.81
2023-04-28T17:00:12.935Z,44.17
2023-04-28T17:02:41.613Z,44.22
2023-04-28T17:05:10.834Z,44.89
2023-04-28T17:07:39.168Z,45.75
2023-04-28T17:10:08.369Z,46.51
2023-04-28T17:12:36.801Z,46.95
2023-04-28T17:15:08.130Z,47.14
2023-04-28T17:17:37.518Z,47.71
2023-04-28T17:20:07.079Z,48.10
2023-04-28T17:22:35.570Z,48.35
2023-04-28T17:25:04.735Z,48.59
2023-04-28T17:27:33.152Z,49.00
2023-04-28T17:30:01.544Z,49.34
2023-04-28T17:32:31.069Z,49.82
2023-04-28T17:34:59.593Z,50.18
2023-04-28T17:37:28.025Z,50.40
2023-04-28T17:39:56.979Z,50.68
2023-04-28T17:42:25.349Z,50.89
2023-04-28T17:44:53.731Z,50.97
2023-04-28T17:47:22.055Z,51.50
2023-04-28T17:49:50.548Z,51.94
2023-04-28T17:52:19.025Z,52.36
2023-04-28T17:54:47.730Z,52.67
2023-04-28T17:57:16.331Z,53.21
2023-04-28T17:59:46.443Z,53.56
2023-04-28T18:02:14.853Z,54.02
2023-04-28T18:04:43.286Z,54.31
2023-04-28T18:07:11.814Z,54.49
2023-04-28T18:09:40.178Z,54.83
2023-04-28T18:12:09.581Z,55.13
2023-04-28T18:14:38.078Z,55.35
2023-04-28T18:17:07.003Z,55.71
2023-04-28T18:19:35.493Z,56.08
2023-04-28T18:22:03.877Z,56.37
2023-04-28T18:24:32.270Z,56.70
2023-04-28T18:27:01.497Z,57.05
2023-04-28T18:29:29.836Z,57.34
2023-04-28T18:31:58.231Z,57.55
2023-04-28T18:34:27.331Z,57.89
2023-04-28T18:36:55.798Z,58.08
2023-04-28T18:39:24.640Z,58.36
2023-04-28T18:41:53.370Z,58.64
2023-04-28T18:44:21.820Z,58.94
2023-04-28T18:46:51.454Z,59.20
2023-04-28T18:49:20.049Z,59.45
2023-04-28T18:51:48.428Z,59.81
2023-04-28T18:54:17.378Z,60.13
2023-04-28T18:56:46.277Z,60.53
2023-04-28T18:59:14.637Z,60.67
2023-04-28T19:01:43.017Z,60.99
2023-04-28T19:04:12.136Z,61.39
2023-04-28T19:06:40.768Z,61.60
2023-04-28T19:09:09.152Z,61.87
2023-04-28T19:11:37.556Z,62.20
2023-04-28T19:14:06.686Z,62.47
2023-04-28T19:16:35.355Z,62.64
2023-04-28T19:19:03.807Z,63.01
2023-04-28T19:21:43.228Z,63.31
2023-04-28T19:24:12.702Z,63.53
2023-04-28T19:26:41.042Z,63.75
2023-04-28T19:29:09.431Z,64.02
2023-04-28T19:31:37.790Z,64.22
2023-04-28T19:34:06.232Z,64.42
2023-04-28T19:36:35.822Z,64.68
2023-04-28T19:39:04.172Z,64.76
2023-04-28T19:41:32.578Z,64.96
2023-04-28T19:44:01.912Z,65.17
2023-04-28T19:46:30.295Z,65.43
2023-04-28T19:48:58.750Z,65.49
2023-04-28T19:51:27.964Z,65.72
2023-04-28T19:53:56.340Z,65.79
2023-04-28T19:56:24.752Z,65.97
2023-04-28T19:58:54.102Z,66.04
2023-04-28T20:01:23.129Z,66.09
2023-04-28T20:03:52.021Z,66.25
2023-04-28T20:06:20.551Z,66.53
2023-04-28T20:08:49.162Z,66.79
2023-04-28T20:11:17.632Z,66.93
2023-04-28T20:13:45.988Z,67.05
2023-04-28T20:16:14.408Z,67.17
2023-04-28T20:18:42.857Z,67.24
2023-04-28T20:21:11.457Z,67.49
2023-04-28T20:23:39.790Z,67.56
2023-04-28T20:26:16.940Z,67.66
2023-04-28T20:28:47.578Z,67.86
2023-04-28T20:31:16.220Z,68.06
2023-04-28T20:33:44.651Z,68.24
2023-04-28T20:36:13.019Z,68.43
2023-04-28T20:38:43.435Z,68.55
2023-04-28T20:41:12.245Z,68.57
2023-04-28T20:43:41.618Z,68.81
2023-04-28T20:46:10.925Z,68.73
2023-04-28T20:48:40.400Z,68.88
2023-04-28T20:51:08.811Z,68.93
2023-04-28T20:53:39.712Z,68.90
2023-04-28T20:56:08.475Z,69.12
2023-04-28T20:58:37.063Z,69.15
2023-04-28T21:01:05.509Z,69.26
2023-04-28T21:03:34.513Z,69.30
2023-04-28T21:06:03.954Z,69.38
2023-04-28T21:08:32.397Z,69.72
2023-04-28T21:11:00.756Z,69.73
2023-04-28T21:13:29.128Z,69.86
2023-04-28T21:15:57.572Z,69.96
2023-04-28T21:18:25.904Z,70.17
2023-04-28T21:20:54.737Z,70.26
2023-04-28T21:23:23.203Z,70.29
2023-04-28T21:25:52.296Z,70.46
2023-04-28T21:28:20.654Z,70.56
2023-04-28T21:30:52.939Z,70.66
2023-04-28T21:33:23.778Z,70.69
2023-04-28T21:35:52.168Z,70.80
2023-04-28T21:38:20.653Z,70.95
2023-04-28T21:40:49.150Z,71.04
2023-04-28T21:43:17.571Z,70.99
2023-04-28T21:45:45.996Z,71.02
2023-04-28T21:48:14.490Z,71.17
2023-04-28T21:50:42.854Z,71.26
2023-04-28T21:53:11.461Z,71.58
2023-04-28T21:55:40.015Z,71.52
2023-04-28T21:58:08.491Z,71.66
2023-04-28T22:00:43.610Z,71.73
2023-04-28T22:03:13.750Z,71.73
2023-04-28T22:05:43.555Z,71.71
2023-04-28T22:08:13.220Z,71.77
2023-04-28T22:10:44.018Z,71.97
2023-04-28T22:13:13.515Z,72.05
2023-04-28T22:15:42.594Z,72.10
2023-04-28T22:18:11.180Z,72.18
2023-04-28T22:20:40.309Z,72.25
2023-04-28T22:23:08.631Z,72.42
2023-04-28T22:25:37.013Z,72.48
2023-04-28T22:28:05.361Z,72.50
2023-04-28T22:30:33.710Z,72.64
2023-04-28T22:33:02.119Z,72.59
2023-04-28T22:35:30.497Z,72.71
2023-04-28T22:37:58.897Z,72.76
2023-04-28T22:40:27.802Z,72.89
2023-04-28T22:42:56.325Z,73.02
2023-04-28T22:45:24.687Z,73.07
2023-04-28T22:47:53.047Z,73.18
2023-04-28T22:50:21.762Z,73.14
2023-04-28T22:52:50.375Z,73.14
2023-04-28T22:55:19.450Z,73.36
2023-04-28T22:57:47.839Z,73.55
2023-04-28T23:00:16.623Z,73.51
2023-04-28T23:02:45.312Z,73.58
2023-04-28T23:05:14.023Z,73.65
2023-04-28T23:07:42.361Z,73.71
2023-04-28T23:10:14.287Z,73.85
2023-04-28T23:12:43.500Z,73.97
2023-04-28T23:15:11.945Z,73.96
2023-04-28T23:17:42.021Z,73.98
2023-04-28T23:20:11.167Z,74.10
2023-04-28T23:22:39.489Z,74.13
2023-04-28T23:25:08.771Z,74.04
2023-04-28T23:27:37.256Z,74.03
2023-04-28T23:30:06.455Z,74.09
2023-04-28T23:32:34.803Z,74.11
2023-04-28T23:35:03.371Z,74.25
2023-04-28T23:37:31.721Z,74.39
2023-04-28T23:39:59.993Z,74.39
2023-04-28T23:42:29.013Z,74.42
2023-04-28T23:44:58.274Z,74.57
2023-04-28T23:47:26.800Z,74.57
2023-04-28T23:49:55.224Z,74.54
2023-04-28T23:52:23.682Z,74.58
2023-04-28T23:54:51.979Z,74.76
2023-04-28T23:57:20.296Z,74.68
2023-04-28T23:59:48.885Z,74.67
